sensor_id;sensor_type;location;lat;lon;timestamp;P1;durP1;ratioP1;P2;durP2;ratioP2
42646;SDS011;31319;53.678;-6.254;2022-08-19T00:02:03;17.40;;;4.30;;
42646;SDS011;31319;53.678;-6.254;2022-08-19T00:04:31;14.43;;;3.75;;
42646;SDS011;31319;53.678;-6.254;2022-08-19T00:07:03;16.27;;;3.72;;
42646;SDS011;31319;53.678;-6.254;2022-08-19T00:09:30;15.88;;;4.30;;
42646;SDS011;31319;53.678;-6.254;2022-08-19T00:11:56;18.58;;;3.97;;
42646;SDS011;31319;53.678;-6.254;2022-08-19T00:14:24;12.05;;;3.38;;
42646;SDS011;31319;53.678;-6.254;2022-08-19T00:16:50;11.80;;;4.25;;
42646;SDS011;31319;53.678;-6.254;2022-08-19T00:19:19;14.13;;;3.92;;
42646;SDS011;31319;53.678;-6.254;2022-08-19T00:21:45;11.15;;;3.85;;
42646;SDS011;31319;53.678;-6.254;2022-08-19T00:24:11;15.15;;;3.53;;
42646;SDS011;31319;53.678;-6.254;2022-08-19T00:26:40;15.30;;;4.03;;
42646;SDS011;31319;53.678;-6.254;2022-08-19T00:29:07;19.98;;;4.22;;
42646;SDS011;31319;53.678;-6.254;2022-08-19T00:31:34;13.93;;;5.28;;
42646;SDS011;31319;53.678;-6.254;2022-08-19T00:34:00;10.52;;;4.18;;
42646;SDS011;31319;53.678;-6.254;2022-08-19T00:36:26;14.10;;;4.15;;
42646;SDS011;31319;53.678;-6.254;2022-08-19T00:38:53;14.20;;;4.20;;
42646;SDS011;31319;53.678;-6.254;2022-08-19T00:41:19;17.48;;;4.07;;
42646;SDS011;31319;53.678;-6.254;2022-08-19T00:46:36;13.20;;;3.78;;
42646;SDS011;31319;53.678;-6.254;2022-08-19T00:49:06;11.77;;;4.43;;
42646;SDS011;31319;53.678;-6.254;2022-08-19T00:51:55;18.17;;;5.72;;
42646;SDS011;31319;53.678;-6.254;2022-08-19T00:54:26;16.63;;;4.93;;
42646;SDS011;31319;53.678;-6.254;2022-08-19T00:56:53;18.10;;;4.65;;
42646;SDS011;31319;53.678;-6.254;2022-08-19T00:59:19;18.95;;;4.18;;
42646;SDS011;31319;53.678;-6.254;2022-08-19T01:01:45;19.58;;;4.57;;
42646;SDS011;31319;53.678;-6.254;2022-08-19T01:04:12;16.13;;;3.47;;
42646;SDS011;31319;53.678;-6.254;2022-08-19T01:06:38;15.45;;;4.70;;
42646;SDS011;31319;53.678;-6.254;2022-08-19T01:09:06;16.90;;;3.70;;
42646;SDS011;31319;53.678;-6.254;2022-08-19T01:11:34;13.73;;;4.05;;
42646;SDS011;31319;53.678;-6.254;2022-08-19T01:14:02;15.13;;;4.20;;
42646;SDS011;31319;53.678;-6.254;2022-08-19T01:16:28;19.92;;;5.60;;
42646;SDS011;31319;53.678;-6.254;2022-08-19T01:18:56;15.00;;;4.38;;
42646;SDS011;31319;53.678;-6.254;2022-08-19T01:23:59;16.25;;;4.30;;
42646;SDS011;31319;53.678;-6.254;2022-08-19T01:26:25;16.50;;;4.32;;
42646;SDS011;31319;53.678;-6.254;2022-08-19T01:28:54;13.63;;;3.55;;
42646;SDS011;31319;53.678;-6.254;2022-08-19T01:31:23;14.10;;;3.22;;
42646;SDS011;31319;53.678;-6.254;2022-08-19T01:33:51;16.52;;;4.38;;
42646;SDS011;31319;53.678;-6.254;2022-08-19T01:36:25;13.57;;;5.20;;
42646;SDS011;31319;53.678;-6.254;2022-08-19T01:39:07;21.73;;;4.83;;
42646;SDS011;31319;53.678;-6.254;2022-08-19T01:41:36;15.70;;;3.97;;
42646;SDS011;31319;53.678;-6.254;2022-08-19T01:44:02;13.00;;;3.83;;
42646;SDS011;31319;53.678;-6.254;2022-08-19T01:46:29;16.98;;;4.18;;
42646;SDS011;31319;53.678;-6.254;2022-08-19T01:48:56;14.68;;;4.53;;
42646;SDS011;31319;53.678;-6.254;2022-08-19T01:51:21;15.38;;;4.15;;
42646;SDS011;31319;53.678;-6.254;2022-08-19T01:53:48;17.90;;;4.38;;
42646;SDS011;31319;53.678;-6.254;2022-08-19T01:56:14;16.85;;;4.47;;
42646;SDS011;31319;53.678;-6.254;2022-08-19T01:58:45;19.63;;;4.90;;
42646;SDS011;31319;53.678;-6.254;2022-08-19T02:01:15;15.50;;;4.13;;
42646;SDS011;31319;53.678;-6.254;2022-08-19T02:03:42;15.52;;;4.80;;
42646;SDS011;31319;53.678;-6.254;2022-08-19T02:06:07;18.13;;;3.92;;
42646;SDS011;31319;53.678;-6.254;2022-08-19T02:08:34;16.55;;;4.65;;
42646;SDS011;31319;53.678;-6.254;2022-08-19T02:11:02;18.48;;;4.53;;
42646;SDS011;31319;53.678;-6.254;2022-08-19T02:13:29;15.68;;;4.65;;
42646;SDS011;31319;53.678;-6.254;2022-08-19T02:15:55;17.00;;;4.07;;
42646;SDS011;31319;53.678;-6.254;2022-08-19T02:18:21;17.92;;;4.63;;
42646;SDS011;31319;53.678;-6.254;2022-08-19T02:20:47;14.40;;;3.75;;
42646;SDS011;31319;53.678;-6.254;2022-08-19T02:23:13;16.23;;;4.32;;
42646;SDS011;31319;53.678;-6.254;2022-08-19T02:25:42;15.43;;;3.72;;
42646;SDS011;31319;53.678;-6.254;2022-08-19T02:28:09;21.45;;;3.92;;
42646;SDS011;31319;53.678;-6.254;2022-08-19T02:30:36;17.52;;;4.35;;
42646;SDS011;31319;53.678;-6.254;2022-08-19T02:33:03;20.73;;;5.28;;
42646;SDS011;31319;53.678;-6.254;2022-08-19T02:35:29;17.50;;;5.07;;
42646;SDS011;31319;53.678;-6.254;2022-08-19T02:37:55;13.77;;;3.47;;
42646;SDS011;31319;53.678;-6.254;2022-08-19T02:40:39;11.57;;;3.70;;
42646;SDS011;31319;53.678;-6.254;2022-08-19T02:43:06;13.15;;;3.78;;
42646;SDS011;31319;53.678;-6.254;2022-08-19T02:45:37;15.43;;;3.50;;
42646;SDS011;31319;53.678;-6.254;2022-08-19T02:48:05;14.25;;;3.38;;
42646;SDS011;31319;53.678;-6.254;2022-08-19T02:50:31;19.27;;;4.63;;
42646;SDS011;31319;53.678;-6.254;2022-08-19T02:52:57;13.27;;;3.80;;
42646;SDS011;31319;53.678;-6.254;2022-08-19T02:55:23;18.05;;;4.00;;
42646;SDS011;31319;53.678;-6.254;2022-08-19T02:57:48;18.40;;;4.38;;
42646;SDS011;31319;53.678;-6.254;2022-08-19T03:00:14;16.48;;;3.88;;
42646;SDS011;31319;53.678;-6.254;2022-08-19T03:02:40;13.82;;;4.07;;
42646;SDS011;31319;53.678;-6.254;2022-08-19T03:05:07;13.68;;;3.63;;
42646;SDS011;31319;53.678;-6.254;2022-08-19T03:07:34;16.15;;;3.35;;
42646;SDS011;31319;53.678;-6.254;2022-08-19T03:10:01;10.93;;;3.25;;
42646;SDS011;31319;53.678;-6.254;2022-08-19T03:12:26;14.25;;;3.60;;
42646;SDS011;31319;53.678;-6.254;2022-08-19T03:14:52;15.35;;;4.28;;
42646;SDS011;31319;53.678;-6.254;2022-08-19T03:17:18;19.60;;;3.83;;
42646;SDS011;31319;53.678;-6.254;2022-08-19T03:19:44;15.00;;;4.28;;
42646;SDS011;31319;53.678;-6.254;2022-08-19T03:22:09;20.35;;;5.43;;
42646;SDS011;31319;53.678;-6.254;2022-08-19T03:24:35;15.13;;;4.07;;
42646;SDS011;31319;53.678;-6.254;2022-08-19T03:27:01;15.60;;;4.75;;
42646;SDS011;31319;53.678;-6.254;2022-08-19T03:29:30;17.30;;;4.55;;
42646;SDS011;31319;53.678;-6.254;2022-08-19T03:32:00;14.65;;;3.42;;
42646;SDS011;31319;53.678;-6.254;2022-08-19T03:34:29;11.52;;;3.85;;
42646;SDS011;31319;53.678;-6.254;2022-08-19T03:36:58;17.02;;;4.03;;
42646;SDS011;31319;53.678;-6.254;2022-08-19T03:39:27;15.05;;;4.75;;
42646;SDS011;31319;53.678;-6.254;2022-08-19T03:41:53;19.75;;;4.32;;
42646;SDS011;31319;53.678;-6.254;2022-08-19T03:44:21;15.80;;;4.20;;
42646;SDS011;31319;53.678;-6.254;2022-08-19T03:46:55;18.85;;;5.00;;
42646;SDS011;31319;53.678;-6.254;2022-08-19T03:49:23;19.50;;;4.65;;
42646;SDS011;31319;53.678;-6.254;2022-08-19T03:51:52;10.80;;;3.42;;
42646;SDS011;31319;53.678;-6.254;2022-08-19T03:54:20;12.52;;;3.83;;
42646;SDS011;31319;53.678;-6.254;2022-08-19T03:56:49;14.85;;;3.72;;
42646;SDS011;31319;53.678;-6.254;2022-08-19T03:59:21;15.70;;;3.90;;
42646;SDS011;31319;53.678;-6.254;2022-08-19T04:01:56;16.52;;;3.72;;
42646;SDS011;31319;53.678;-6.254;2022-08-19T04:04:23;15.02;;;3.60;;
42646;SDS011;31319;53.678;-6.254;2022-08-19T04:06:49;14.32;;;3.40;;
42646;SDS011;31319;53.678;-6.254;2022-08-19T04:09:16;14.30;;;4.22;;
42646;SDS011;31319;53.678;-6.254;2022-08-19T04:11:47;9.20;;;3.45;;
42646;SDS011;31319;53.678;-6.254;2022-08-19T04:14:17;15.25;;;3.95;;
42646;SDS011;31319;53.678;-6.254;2022-08-19T04:16:45;13.45;;;3.22;;
42646;SDS011;31319;53.678;-6.254;2022-08-19T04:19:12;11.48;;;3.30;;
42646;SDS011;31319;53.678;-6.254;2022-08-19T04:21:38;11.55;;;3.25;;
42646;SDS011;31319;53.678;-6.254;2022-08-19T04:24:03;12.88;;;2.70;;
42646;SDS011;31319;53.678;-6.254;2022-08-19T04:26:32;8.88;;;3.03;;
42646;SDS011;31319;53.678;-6.254;2022-08-19T04:29:00;17.52;;;3.95;;
42646;SDS011;31319;53.678;-6.254;2022-08-19T04:31:29;14.73;;;3.65;;
42646;SDS011;31319;53.678;-6.254;2022-08-19T04:33:57;16.17;;;4.20;;
42646;SDS011;31319;53.678;-6.254;2022-08-19T04:36:26;15.07;;;3.20;;
42646;SDS011;31319;53.678;-6.254;2022-08-19T04:38:58;10.25;;;3.00;;
42646;SDS011;31319;53.678;-6.254;2022-08-19T04:41:26;10.98;;;3.05;;
42646;SDS011;31319;53.678;-6.254;2022-08-19T04:44:10;12.65;;;3.03;;
42646;SDS011;31319;53.678;-6.254;2022-08-19T04:46:36;11.10;;;2.88;;
42646;SDS011;31319;53.678;-6.254;2022-08-19T04:49:03;15.60;;;4.18;;
42646;SDS011;31319;53.678;-6.254;2022-08-19T04:51:32;12.50;;;3.35;;
42646;SDS011;31319;53.678;-6.254;2022-08-19T04:53:58;10.23;;;2.85;;
42646;SDS011;31319;53.678;-6.254;2022-08-19T04:56:26;12.15;;;3.72;;
42646;SDS011;31319;53.678;-6.254;2022-08-19T04:58:52;10.85;;;4.18;;
42646;SDS011;31319;53.678;-6.254;2022-08-19T05:01:21;14.02;;;3.60;;
42646;SDS011;31319;53.678;-6.254;2022-08-19T05:03:53;11.73;;;3.60;;
42646;SDS011;31319;53.678;-6.254;2022-08-19T05:06:20;17.90;;;3.70;;
42646;SDS011;31319;53.678;-6.254;2022-08-19T05:08:46;19.15;;;3.20;;
42646;SDS011;31319;53.678;-6.254;2022-08-19T05:11:13;11.85;;;2.95;;
42646;SDS011;31319;53.678;-6.254;2022-08-19T05:14:06;12.10;;;3.83;;
42646;SDS011;31319;53.678;-6.254;2022-08-19T05:16:33;16.27;;;3.75;;
42646;SDS011;31319;53.678;-6.254;2022-08-19T05:18:58;15.05;;;4.45;;
42646;SDS011;31319;53.678;-6.254;2022-08-19T05:21:43;13.95;;;4.38;;
42646;SDS011;31319;53.678;-6.254;2022-08-19T05:24:28;14.80;;;3.47;;
42646;SDS011;31319;53.678;-6.254;2022-08-19T05:26:54;14.00;;;3.47;;
42646;SDS011;31319;53.678;-6.254;2022-08-19T05:31:51;18.02;;;4.05;;
42646;SDS011;31319;53.678;-6.254;2022-08-19T05:34:18;15.13;;;3.83;;
42646;SDS011;31319;53.678;-6.254;2022-08-19T05:36:47;14.13;;;2.90;;
42646;SDS011;31319;53.678;-6.254;2022-08-19T05:39:15;20.58;;;4.68;;
42646;SDS011;31319;53.678;-6.254;2022-08-19T05:41:54;12.40;;;3.63;;
42646;SDS011;31319;53.678;-6.254;2022-08-19T05:44:22;9.73;;;3.50;;
42646;SDS011;31319;53.678;-6.254;2022-08-19T05:46:52;15.25;;;3.58;;
42646;SDS011;31319;53.678;-6.254;2022-08-19T05:49:19;14.13;;;3.38;;
42646;SDS011;31319;53.678;-6.254;2022-08-19T05:51:47;8.02;;;2.55;;
42646;SDS011;31319;53.678;-6.254;2022-08-19T05:54:13;16.38;;;3.45;;
42646;SDS011;31319;53.678;-6.254;2022-08-19T05:56:39;18.70;;;3.13;;
42646;SDS011;31319;53.678;-6.254;2022-08-19T05:59:06;16.13;;;2.83;;
42646;SDS011;31319;53.678;-6.254;2022-08-19T06:01:35;16.75;;;3.15;;
42646;SDS011;31319;53.678;-6.254;2022-08-19T06:04:05;9.65;;;2.40;;
42646;SDS011;31319;53.678;-6.254;2022-08-19T06:06:32;13.50;;;3.45;;
42646;SDS011;31319;53.678;-6.254;2022-08-19T06:09:00;13.13;;;3.20;;
42646;SDS011;31319;53.678;-6.254;2022-08-19T06:11:34;17.27;;;3.67;;
42646;SDS011;31319;53.678;-6.254;2022-08-19T06:14:09;9.13;;;2.75;;
42646;SDS011;31319;53.678;-6.254;2022-08-19T06:16:39;37.55;;;5.55;;
42646;SDS011;31319;53.678;-6.254;2022-08-19T06:19:07;9.32;;;2.72;;
42646;SDS011;31319;53.678;-6.254;2022-08-19T06:21:35;17.27;;;3.53;;
42646;SDS011;31319;53.678;-6.254;2022-08-19T06:24:03;8.43;;;2.10;;
42646;SDS011;31319;53.678;-6.254;2022-08-19T06:26:31;10.80;;;3.28;;
42646;SDS011;31319;53.678;-6.254;2022-08-19T06:28:59;9.88;;;2.40;;
42646;SDS011;31319;53.678;-6.254;2022-08-19T06:31:26;12.35;;;3.33;;
42646;SDS011;31319;53.678;-6.254;2022-08-19T06:33:53;10.02;;;3.03;;
42646;SDS011;31319;53.678;-6.254;2022-08-19T06:36:23;16.38;;;3.33;;
42646;SDS011;31319;53.678;-6.254;2022-08-19T06:38:56;12.50;;;2.63;;
42646;SDS011;31319;53.678;-6.254;2022-08-19T06:41:36;14.30;;;3.35;;
42646;SDS011;31319;53.678;-6.254;2022-08-19T06:44:04;9.05;;;2.20;;
42646;SDS011;31319;53.678;-6.254;2022-08-19T06:46:30;12.38;;;3.58;;
42646;SDS011;31319;53.678;-6.254;2022-08-19T06:48:56;14.80;;;4.05;;
42646;SDS011;31319;53.678;-6.254;2022-08-19T06:51:23;12.85;;;2.55;;
42646;SDS011;31319;53.678;-6.254;2022-08-19T06:53:49;17.42;;;3.55;;
42646;SDS011;31319;53.678;-6.254;2022-08-19T06:56:17;15.95;;;2.95;;
42646;SDS011;31319;53.678;-6.254;2022-08-19T06:58:46;13.15;;;3.30;;
42646;SDS011;31319;53.678;-6.254;2022-08-19T07:01:13;8.02;;;2.72;;
42646;SDS011;31319;53.678;-6.254;2022-08-19T07:03:39;12.00;;;2.90;;
42646;SDS011;31319;53.678;-6.254;2022-08-19T07:06:05;4.97;;;1.95;;
42646;SDS011;31319;53.678;-6.254;2022-08-19T07:08:33;16.33;;;3.40;;
42646;SDS011;31319;53.678;-6.254;2022-08-19T07:11:00;24.92;;;4.30;;
42646;SDS011;31319;53.678;-6.254;2022-08-19T07:13:26;11.25;;;2.40;;
42646;SDS011;31319;53.678;-6.254;2022-08-19T07:15:51;8.73;;;1.88;;
42646;SDS011;31319;53.678;-6.254;2022-08-19T07:18:18;10.25;;;2.65;;
42646;SDS011;31319;53.678;-6.254;2022-08-19T07:20:45;11.10;;;2.17;;
42646;SDS011;31319;53.678;-6.254;2022-08-19T07:23:11;12.40;;;2.78;;
42646;SDS011;31319;53.678;-6.254;2022-08-19T07:25:37;12.88;;;2.50;;
42646;SDS011;31319;53.678;-6.254;2022-08-19T07:28:03;14.43;;;3.72;;
42646;SDS011;31319;53.678;-6.254;2022-08-19T07:30:29;9.52;;;2.20;;
42646;SDS011;31319;53.678;-6.254;2022-08-19T07:32:55;9.25;;;1.88;;
42646;SDS011;31319;53.678;-6.254;2022-08-19T07:35:21;11.45;;;2.35;;
42646;SDS011;31319;53.678;-6.254;2022-08-19T07:37:48;14.00;;;2.75;;
42646;SDS011;31319;53.678;-6.254;2022-08-19T07:40:14;9.55;;;2.17;;
42646;SDS011;31319;53.678;-6.254;2022-08-19T07:42:40;11.45;;;2.00;;
42646;SDS011;31319;53.678;-6.254;2022-08-19T07:45:07;5.47;;;1.40;;
42646;SDS011;31319;53.678;-6.254;2022-08-19T07:47:33;5.68;;;1.48;;
42646;SDS011;31319;53.678;-6.254;2022-08-19T07:49:58;7.20;;;1.75;;
42646;SDS011;31319;53.678;-6.254;2022-08-19T07:52:24;12.55;;;2.50;;
42646;SDS011;31319;53.678;-6.254;2022-08-19T07:54:49;5.97;;;2.35;;
42646;SDS011;31319;53.678;-6.254;2022-08-19T07:57:16;5.07;;;1.40;;
42646;SDS011;31319;53.678;-6.254;2022-08-19T07:59:42;4.60;;;1.42;;
42646;SDS011;31319;53.678;-6.254;2022-08-19T08:02:08;5.05;;;1.35;;
42646;SDS011;31319;53.678;-6.254;2022-08-19T08:04:34;5.75;;;1.33;;
42646;SDS011;31319;53.678;-6.254;2022-08-19T08:07:18;5.43;;;1.85;;
42646;SDS011;31319;53.678;-6.254;2022-08-19T08:10:04;8.90;;;1.58;;
42646;SDS011;31319;53.678;-6.254;2022-08-19T08:12:35;5.65;;;1.63;;
42646;SDS011;31319;53.678;-6.254;2022-08-19T08:15:08;7.82;;;3.05;;
42646;SDS011;31319;53.678;-6.254;2022-08-19T08:20:03;7.30;;;1.85;;
42646;SDS011;31319;53.678;-6.254;2022-08-19T08:22:31;4.18;;;1.23;;
42646;SDS011;31319;53.678;-6.254;2022-08-19T08:25:17;5.55;;;1.60;;
42646;SDS011;31319;53.678;-6.254;2022-08-19T08:27:46;6.38;;;1.92;;
42646;SDS011;31319;53.678;-6.254;2022-08-19T08:30:19;4.72;;;1.42;;
42646;SDS011;31319;53.678;-6.254;2022-08-19T08:32:47;7.68;;;1.98;;
42646;SDS011;31319;53.678;-6.254;2022-08-19T08:35:15;7.18;;;2.53;;
42646;SDS011;31319;53.678;-6.254;2022-08-19T08:37:43;4.40;;;1.40;;
42646;SDS011;31319;53.678;-6.254;2022-08-19T08:40:57;8.70;;;2.08;;
42646;SDS011;31319;53.678;-6.254;2022-08-19T08:43:13;8.80;;;2.25;;
42646;SDS011;31319;53.678;-6.254;2022-08-19T08:45:51;7.07;;;2.83;;
42646;SDS011;31319;53.678;-6.254;2022-08-19T08:48:25;9.73;;;2.58;;
42646;SDS011;31319;53.678;-6.254;2022-08-19T08:50:59;9.57;;;2.53;;
42646;SDS011;31319;53.678;-6.254;2022-08-19T08:53:28;5.95;;;2.03;;
42646;SDS011;31319;53.678;-6.254;2022-08-19T08:55:57;10.90;;;2.70;;
42646;SDS011;31319;53.678;-6.254;2022-08-19T08:58:28;7.18;;;2.42;;
42646;SDS011;31319;53.678;-6.254;2022-08-19T09:01:11;7.15;;;2.08;;
42646;SDS011;31319;53.678;-6.254;2022-08-19T09:03:37;7.00;;;2.60;;
42646;SDS011;31319;53.678;-6.254;2022-08-19T09:08:49;16.63;;;3.08;;
42646;SDS011;31319;53.678;-6.254;2022-08-19T09:14:06;9.45;;;2.30;;
42646;SDS011;31319;53.678;-6.254;2022-08-19T09:16:58;5.20;;;2.05;;
42646;SDS011;31319;53.678;-6.254;2022-08-19T09:19:24;9.90;;;2.95;;
42646;SDS011;31319;53.678;-6.254;2022-08-19T09:21:50;6.72;;;2.30;;
42646;SDS011;31319;53.678;-6.254;2022-08-19T09:24:15;6.45;;;1.98;;
42646;SDS011;31319;53.678;-6.254;2022-08-19T09:26:41;6.78;;;2.22;;
42646;SDS011;31319;53.678;-6.254;2022-08-19T09:29:09;8.43;;;1.85;;
42646;SDS011;31319;53.678;-6.254;2022-08-19T09:31:35;10.20;;;2.45;;
42646;SDS011;31319;53.678;-6.254;2022-08-19T09:34:04;33.95;;;5.60;;
42646;SDS011;31319;53.678;-6.254;2022-08-19T09:36:30;5.25;;;1.90;;
42646;SDS011;31319;53.678;-6.254;2022-08-19T09:39:01;8.20;;;1.98;;
42646;SDS011;31319;53.678;-6.254;2022-08-19T09:41:30;14.40;;;2.58;;
42646;SDS011;31319;53.678;-6.254;2022-08-19T09:43:57;35.47;;;4.75;;
42646;SDS011;31319;53.678;-6.254;2022-08-19T09:46:25;6.68;;;1.63;;
42646;SDS011;31319;53.678;-6.254;2022-08-19T09:48:52;4.22;;;1.48;;
42646;SDS011;31319;53.678;-6.254;2022-08-19T09:51:20;5.93;;;1.60;;
42646;SDS011;31319;53.678;-6.254;2022-08-19T09:53:49;3.38;;;1.23;;
42646;SDS011;31319;53.678;-6.254;2022-08-19T09:56:16;9.52;;;2.00;;
42646;SDS011;31319;53.678;-6.254;2022-08-19T09:58:43;5.07;;;1.77;;
42646;SDS011;31319;53.678;-6.254;2022-08-19T10:01:09;8.23;;;1.67;;
42646;SDS011;31319;53.678;-6.254;2022-08-19T10:03:46;6.95;;;1.88;;
42646;SDS011;31319;53.678;-6.254;2022-08-19T10:06:13;4.22;;;1.20;;
42646;SDS011;31319;53.678;-6.254;2022-08-19T10:08:40;5.13;;;1.20;;
42646;SDS011;31319;53.678;-6.254;2022-08-19T10:11:06;6.18;;;1.40;;
42646;SDS011;31319;53.678;-6.254;2022-08-19T10:13:33;4.07;;;1.30;;
42646;SDS011;31319;53.678;-6.254;2022-08-19T10:16:06;7.72;;;1.95;;
42646;SDS011;31319;53.678;-6.254;2022-08-19T10:18:48;7.03;;;1.65;;
42646;SDS011;31319;53.678;-6.254;2022-08-19T10:21:19;5.25;;;1.02;;
42646;SDS011;31319;53.678;-6.254;2022-08-19T10:23:45;3.33;;;1.00;;
42646;SDS011;31319;53.678;-6.254;2022-08-19T10:26:15;3.17;;;1.25;;
42646;SDS011;31319;53.678;-6.254;2022-08-19T10:28:43;3.95;;;0.90;;
42646;SDS011;31319;53.678;-6.254;2022-08-19T10:31:10;1.35;;;0.70;;
42646;SDS011;31319;53.678;-6.254;2022-08-19T10:33:39;4.60;;;1.00;;
42646;SDS011;31319;53.678;-6.254;2022-08-19T10:36:13;3.60;;;1.73;;
42646;SDS011;31319;53.678;-6.254;2022-08-19T10:38:42;2.78;;;0.85;;
42646;SDS011;31319;53.678;-6.254;2022-08-19T10:41:14;7.28;;;1.88;;
42646;SDS011;31319;53.678;-6.254;2022-08-19T10:43:42;5.05;;;1.73;;
42646;SDS011;31319;53.678;-6.254;2022-08-19T10:46:14;9.40;;;1.98;;
42646;SDS011;31319;53.678;-6.254;2022-08-19T10:48:41;5.40;;;1.27;;
42646;SDS011;31319;53.678;-6.254;2022-08-19T10:51:07;10.63;;;2.58;;
42646;SDS011;31319;53.678;-6.254;2022-08-19T10:53:52;8.55;;;1.40;;
42646;SDS011;31319;53.678;-6.254;2022-08-19T10:56:18;7.13;;;1.48;;
42646;SDS011;31319;53.678;-6.254;2022-08-19T10:59:03;3.47;;;1.30;;
42646;SDS011;31319;53.678;-6.254;2022-08-19T11:01:30;3.28;;;1.08;;
42646;SDS011;31319;53.678;-6.254;2022-08-19T11:03:59;5.13;;;1.90;;
42646;SDS011;31319;53.678;-6.254;2022-08-19T11:06:26;10.63;;;1.65;;
42646;SDS011;31319;53.678;-6.254;2022-08-19T11:08:53;3.30;;;1.25;;
42646;SDS011;31319;53.678;-6.254;2022-08-19T11:11:32;3.28;;;1.33;;
42646;SDS011;31319;53.678;-6.254;2022-08-19T11:14:05;5.57;;;1.25;;
42646;SDS011;31319;53.678;-6.254;2022-08-19T11:16:31;5.75;;;1.52;;
42646;SDS011;31319;53.678;-6.254;2022-08-19T11:18:58;9.15;;;1.80;;
42646;SDS011;31319;53.678;-6.254;2022-08-19T11:21:25;4.68;;;1.52;;
42646;SDS011;31319;53.678;-6.254;2022-08-19T11:23:56;9.02;;;2.83;;
42646;SDS011;31319;53.678;-6.254;2022-08-19T11:26:24;7.15;;;1.48;;
42646;SDS011;31319;53.678;-6.254;2022-08-19T11:28:50;4.85;;;1.70;;
42646;SDS011;31319;53.678;-6.254;2022-08-19T11:31:19;15.15;;;3.58;;
42646;SDS011;31319;53.678;-6.254;2022-08-19T11:33:46;7.63;;;2.00;;
42646;SDS011;31319;53.678;-6.254;2022-08-19T11:36:18;7.82;;;2.33;;
42646;SDS011;31319;53.678;-6.254;2022-08-19T11:38:45;8.23;;;2.13;;
42646;SDS011;31319;53.678;-6.254;2022-08-19T11:41:14;8.80;;;2.25;;
42646;SDS011;31319;53.678;-6.254;2022-08-19T11:43:42;8.45;;;2.35;;
42646;SDS011;31319;53.678;-6.254;2022-08-19T11:46:10;10.77;;;2.10;;
42646;SDS011;31319;53.678;-6.254;2022-08-19T11:48:37;7.45;;;2.03;;
42646;SDS011;31319;53.678;-6.254;2022-08-19T11:51:05;25.77;;;4.10;;
42646;SDS011;31319;53.678;-6.254;2022-08-19T11:53:34;7.88;;;2.53;;
42646;SDS011;31319;53.678;-6.254;2022-08-19T11:56:00;4.88;;;1.90;;
42646;SDS011;31319;53.678;-6.254;2022-08-19T11:58:28;5.57;;;1.30;;
42646;SDS011;31319;53.678;-6.254;2022-08-19T12:00:56;3.90;;;1.60;;
42646;SDS011;31319;53.678;-6.254;2022-08-19T12:03:21;8.85;;;2.65;;
42646;SDS011;31319;53.678;-6.254;2022-08-19T12:05:47;14.25;;;2.00;;
42646;SDS011;31319;53.678;-6.254;2022-08-19T12:08:15;5.85;;;1.55;;
42646;SDS011;31319;53.678;-6.254;2022-08-19T12:10:41;20.88;;;2.85;;
42646;SDS011;31319;53.678;-6.254;2022-08-19T12:13:08;8.43;;;2.55;;
42646;SDS011;31319;53.678;-6.254;2022-08-19T12:15:38;9.50;;;2.13;;
42646;SDS011;31319;53.678;-6.254;2022-08-19T12:18:08;10.95;;;3.08;;
42646;SDS011;31319;53.678;-6.254;2022-08-19T12:20:38;15.85;;;4.03;;
42646;SDS011;31319;53.678;-6.254;2022-08-19T12:23:06;11.90;;;2.65;;
42646;SDS011;31319;53.678;-6.254;2022-08-19T12:25:34;10.93;;;2.55;;
42646;SDS011;31319;53.678;-6.254;2022-08-19T12:28:01;7.55;;;2.20;;
42646;SDS011;31319;53.678;-6.254;2022-08-19T12:30:28;9.55;;;2.20;;
42646;SDS011;31319;53.678;-6.254;2022-08-19T12:32:54;6.53;;;2.13;;
42646;SDS011;31319;53.678;-6.254;2022-08-19T12:35:20;6.30;;;2.17;;
42646;SDS011;31319;53.678;-6.254;2022-08-19T12:37:46;5.65;;;1.90;;
42646;SDS011;31319;53.678;-6.254;2022-08-19T12:40:15;20.08;;;4.13;;
42646;SDS011;31319;53.678;-6.254;2022-08-19T12:42:42;6.32;;;2.30;;
42646;SDS011;31319;53.678;-6.254;2022-08-19T12:45:11;13.40;;;3.60;;
42646;SDS011;31319;53.678;-6.254;2022-08-19T12:50:03;8.27;;;2.30;;
42646;SDS011;31319;53.678;-6.254;2022-08-19T12:52:31;8.48;;;2.95;;
42646;SDS011;31319;53.678;-6.254;2022-08-19T12:54:57;10.80;;;2.88;;
42646;SDS011;31319;53.678;-6.254;2022-08-19T12:57:23;5.88;;;2.30;;
42646;SDS011;31319;53.678;-6.254;2022-08-19T12:59:52;9.30;;;2.55;;
42646;SDS011;31319;53.678;-6.254;2022-08-19T13:02:18;7.93;;;2.60;;
42646;SDS011;31319;53.678;-6.254;2022-08-19T13:04:44;7.05;;;2.38;;
42646;SDS011;31319;53.678;-6.254;2022-08-19T13:07:10;6.88;;;2.08;;
42646;SDS011;31319;53.678;-6.254;2022-08-19T13:09:36;6.85;;;2.47;;
42646;SDS011;31319;53.678;-6.254;2022-08-19T13:12:02;10.02;;;2.85;;
42646;SDS011;31319;53.678;-6.254;2022-08-19T13:14:32;11.32;;;3.03;;
42646;SDS011;31319;53.678;-6.254;2022-08-19T13:16:59;8.60;;;2.78;;
42646;SDS011;31319;53.678;-6.254;2022-08-19T13:19:25;8.27;;;2.90;;
42646;SDS011;31319;53.678;-6.254;2022-08-19T13:21:51;9.55;;;2.63;;
42646;SDS011;31319;53.678;-6.254;2022-08-19T13:24:18;12.93;;;2.92;;
42646;SDS011;31319;53.678;-6.254;2022-08-19T13:26:44;8.85;;;3.03;;
42646;SDS011;31319;53.678;-6.254;2022-08-19T13:29:10;7.25;;;3.13;;
42646;SDS011;31319;53.678;-6.254;2022-08-19T13:31:54;4.55;;;2.08;;
42646;SDS011;31319;53.678;-6.254;2022-08-19T13:34:38;6.28;;;2.20;;
42646;SDS011;31319;53.678;-6.254;2022-08-19T13:37:04;7.53;;;2.78;;
42646;SDS011;31319;53.678;-6.254;2022-08-19T13:39:33;9.40;;;2.70;;
42646;SDS011;31319;53.678;-6.254;2022-08-19T13:42:00;7.15;;;2.65;;
42646;SDS011;31319;53.678;-6.254;2022-08-19T13:44:27;7.85;;;3.10;;
42646;SDS011;31319;53.678;-6.254;2022-08-19T13:49:30;6.30;;;2.60;;
42646;SDS011;31319;53.678;-6.254;2022-08-19T13:51:56;18.38;;;3.10;;
42646;SDS011;31319;53.678;-6.254;2022-08-19T13:54:21;11.10;;;2.15;;
42646;SDS011;31319;53.678;-6.254;2022-08-19T13:56:47;18.85;;;2.55;;
42646;SDS011;31319;53.678;-6.254;2022-08-19T13:59:13;20.05;;;4.13;;
42646;SDS011;31319;53.678;-6.254;2022-08-19T14:01:39;7.88;;;1.98;;
42646;SDS011;31319;53.678;-6.254;2022-08-19T14:04:05;9.52;;;2.10;;
42646;SDS011;31319;53.678;-6.254;2022-08-19T14:06:31;7.93;;;2.63;;
42646;SDS011;31319;53.678;-6.254;2022-08-19T14:08:57;4.45;;;1.38;;
42646;SDS011;31319;53.678;-6.254;2022-08-19T14:11:22;8.60;;;2.50;;
42646;SDS011;31319;53.678;-6.254;2022-08-19T14:13:48;6.60;;;2.38;;
42646;SDS011;31319;53.678;-6.254;2022-08-19T14:16:14;27.45;;;4.93;;
42646;SDS011;31319;53.678;-6.254;2022-08-19T14:18:41;15.88;;;3.78;;
42646;SDS011;31319;53.678;-6.254;2022-08-19T14:21:07;12.30;;;2.25;;
42646;SDS011;31319;53.678;-6.254;2022-08-19T14:23:33;7.40;;;2.00;;
42646;SDS011;31319;53.678;-6.254;2022-08-19T14:26:05;28.08;;;4.35;;
42646;SDS011;31319;53.678;-6.254;2022-08-19T14:28:32;9.07;;;2.60;;
42646;SDS011;31319;53.678;-6.254;2022-08-19T14:30:58;8.70;;;2.55;;
42646;SDS011;31319;53.678;-6.254;2022-08-19T14:33:23;7.85;;;1.90;;
42646;SDS011;31319;53.678;-6.254;2022-08-19T14:35:49;4.72;;;1.90;;
42646;SDS011;31319;53.678;-6.254;2022-08-19T14:38:15;6.60;;;1.33;;
42646;SDS011;31319;53.678;-6.254;2022-08-19T14:40:43;3.15;;;1.10;;
42646;SDS011;31319;53.678;-6.254;2022-08-19T14:43:09;6.32;;;1.48;;
42646;SDS011;31319;53.678;-6.254;2022-08-19T14:45:35;37.42;;;5.68;;
42646;SDS011;31319;53.678;-6.254;2022-08-19T14:48:03;4.43;;;1.40;;
42646;SDS011;31319;53.678;-6.254;2022-08-19T14:50:29;16.63;;;3.28;;
42646;SDS011;31319;53.678;-6.254;2022-08-19T14:53:02;6.40;;;1.80;;
42646;SDS011;31319;53.678;-6.254;2022-08-19T14:55:30;6.95;;;1.20;;